createdAt,value
2019-06-08T00:02:22.971Z,19.20
2019-06-08T00:04:52.954Z,20.03
2019-06-08T00:07:24.385Z,21.17
2019-06-08T00:09:54.069Z,21.57
2019-06-08T00:12:23.776Z,20.40
2019-06-08T00:14:53.502Z,21.07
2019-06-08T00:17:34.573Z,20.77
2019-06-08T00:19:54.974Z,21.57
2019-06-08T00:22:26.305Z,20.90
2019-06-08T00:24:55.935Z,20.87
2019-06-08T00:27:25.624Z,21.17
2019-06-08T00:29:55.336Z,23.43
2019-06-08T00:32:25.042Z,21.57
2019-06-08T00:34:54.749Z,20.50
2019-06-08T00:37:25.003Z,21.43
2019-06-08T00:39:55.284Z,22.13
2019-06-08T00:42:25.520Z,21.90
2019-06-08T00:44:55.398Z,22.67
2019-06-08T00:47:25.068Z,22.50
2019-06-08T00:49:54.785Z,21.63
2019-06-08T00:52:25.584Z,23.03
2019-06-08T00:54:55.493Z,22.43
2019-06-08T00:57:26.051Z,21.20
2019-06-08T00:59:55.929Z,22.13
2019-06-08T01:02:26.828Z,22.93
2019-06-08T01:04:56.687Z,21.30
2019-06-08T01:07:26.395Z,22.40
2019-06-08T01:09:56.042Z,22.77
2019-06-08T01:12:37.991Z,24.03
2019-06-08T01:15:09.243Z,25.40
2019-06-08T01:17:39.049Z,25.70
2019-06-08T01:20:09.364Z,24.17
2019-06-08T01:22:39.099Z,24.13
2019-06-08T01:25:09.041Z,23.57
2019-06-08T01:27:38.813Z,23.43
2019-06-08T01:30:09.410Z,23.30
2019-06-08T01:32:39.100Z,24.73
2019-06-08T01:35:09.416Z,24.53
2019-06-08T01:37:39.217Z,24.70
2019-06-08T01:40:09.212Z,27.67
2019-06-08T01:42:38.933Z,26.37
2019-06-08T01:45:10.019Z,26.50
2019-06-08T01:47:39.771Z,26.90
2019-06-08T01:50:09.471Z,25.80
2019-06-08T01:52:39.186Z,26.03
2019-06-08T01:55:08.949Z,25.70
2019-06-08T01:57:38.720Z,25.93
2019-06-08T02:00:29.363Z,27.10
2019-06-08T02:02:40.532Z,27.47
2019-06-08T02:05:10.371Z,28.00
2019-06-08T02:07:40.093Z,25.77
2019-06-08T02:10:11.055Z,27.93
2019-06-08T02:12:40.777Z,27.57
2019-06-08T02:15:11.073Z,29.23
2019-06-08T02:17:40.791Z,26.53
2019-06-08T02:20:11.096Z,28.30
2019-06-08T02:22:40.884Z,28.43
2019-06-08T02:25:10.900Z,29.83
2019-06-08T02:27:40.663Z,28.53
2019-06-08T02:30:12.605Z,27.60
2019-06-08T02:32:42.330Z,27.53
2019-06-08T02:35:12.456Z,27.00
2019-06-08T02:37:42.201Z,27.73
2019-06-08T02:40:12.139Z,27.50
2019-06-08T02:42:41.854Z,26.37
2019-06-08T02:45:12.149Z,28.33
2019-06-08T02:47:42.037Z,28.87
2019-06-08T02:50:12.563Z,26.57
2019-06-08T02:52:44.457Z,26.70
2019-06-08T02:55:14.268Z,25.07
2019-06-08T02:57:44.909Z,24.97
2019-06-08T03:00:15.735Z,25.13
2019-06-08T03:02:46.544Z,24.27
2019-06-08T03:05:16.604Z,25.40
2019-06-08T03:07:48.625Z,24.90
2019-06-08T03:10:18.533Z,23.90
2019-06-08T03:12:50.844Z,23.97
2019-06-08T03:15:33.741Z,24.23
2019-06-08T03:18:01.510Z,24.43
2019-06-08T03:20:31.616Z,23.73
2019-06-08T03:23:01.864Z,24.70
2019-06-08T03:25:33.255Z,22.37
2019-06-08T03:28:02.915Z,23.60
2019-06-08T03:30:37.172Z,22.97
2019-06-08T03:33:04.059Z,22.43
2019-06-08T03:35:36.015Z,22.30
2019-06-08T03:38:05.228Z,22.40
2019-06-08T03:40:35.897Z,21.60
2019-06-08T03:43:10.490Z,23.30
2019-06-08T03:45:40.769Z,21.53
2019-06-08T03:48:10.980Z,23.43
2019-06-08T03:50:42.065Z,22.47
2019-06-08T03:53:12.196Z,21.73
2019-06-08T03:55:43.059Z,21.33
2019-06-08T03:58:13.389Z,22.10
2019-06-08T04:00:44.417Z,21.47
2019-06-08T04:03:14.208Z,21.77
2019-06-08T04:05:44.905Z,20.60
2019-06-08T04:08:15.322Z,19.13
2019-06-08T04:10:46.683Z,21.10
2019-06-08T04:13:16.480Z,20.97
2019-06-08T04:15:46.889Z,19.83
2019-06-08T04:18:17.109Z,18.42
2019-06-08T04:20:48.820Z,17.65
2019-06-08T04:23:18.402Z,18.32
2019-06-08T04:25:48.154Z,17.85
2019-06-08T04:28:17.868Z,16.90
2019-06-08T04:30:49.913Z,15.03
2019-06-08T04:33:18.996Z,15.30
2019-06-08T04:35:50.611Z,15.65
2019-06-08T04:38:20.210Z,14.38
2019-06-08T04:40:50.190Z,15.58
2019-06-08T04:43:20.113Z,14.70
2019-06-08T04:45:50.024Z,15.55
2019-06-08T04:48:19.790Z,16.12
2019-06-08T04:50:49.805Z,17.75
2019-06-08T04:53:19.780Z,18.62
2019-06-08T04:55:49.501Z,19.20
2019-06-08T04:58:19.186Z,19.00
2019-06-08T05:00:50.813Z,19.55
2019-06-08T05:03:20.382Z,18.90
2019-06-08T05:05:50.291Z,17.92
2019-06-08T05:08:20.907Z,19.12
2019-06-08T05:10:50.574Z,19.25
2019-06-08T05:13:20.315Z,19.25
2019-06-08T05:15:50.413Z,20.57
2019-06-08T05:18:20.337Z,19.05
2019-06-08T05:20:51.445Z,19.70
2019-06-08T05:23:21.391Z,20.35
2019-06-08T05:25:51.070Z,17.85
2019-06-08T05:28:20.787Z,19.65
2019-06-08T05:30:50.543Z,18.55
2019-06-08T05:33:20.241Z,19.15
2019-06-08T05:35:49.986Z,18.05
2019-06-08T05:38:19.702Z,20.08
2019-06-08T05:40:52.702Z,18.10
2019-06-08T05:43:22.579Z,18.45
2019-06-08T05:45:52.271Z,18.45
2019-06-08T05:48:21.985Z,16.97
2019-06-08T05:51:03.002Z,18.17
2019-06-08T05:53:23.700Z,16.42
2019-06-08T05:55:53.399Z,16.95
2019-06-08T05:58:23.104Z,16.97
2019-06-08T06:00:52.812Z,16.32
2019-06-08T06:03:22.572Z,17.10
2019-06-08T06:05:52.350Z,16.23
2019-06-08T06:08:22.030Z,16.73
2019-06-08T06:10:51.766Z,15.90
2019-06-08T06:13:21.666Z,15.23
2019-06-08T06:15:51.823Z,16.40
2019-06-08T06:18:21.801Z,16.85
2019-06-08T06:20:51.794Z,16.20
2019-06-08T06:23:21.995Z,16.80
2019-06-08T06:25:51.872Z,15.63
2019-06-08T06:28:21.741Z,14.65
2019-06-08T06:30:52.250Z,14.05
2019-06-08T06:33:22.773Z,14.93
2019-06-08T06:35:53.201Z,15.78
2019-06-08T06:38:23.022Z,15.23
2019-06-08T06:40:53.210Z,15.25
2019-06-08T06:43:23.149Z,15.80
2019-06-08T06:45:52.957Z,19.10
2019-06-08T06:48:23.598Z,15.83
2019-06-08T06:50:53.578Z,15.25
2019-06-08T06:53:23.279Z,14.13
2019-06-08T06:55:53.411Z,13.93
2019-06-08T06:58:23.329Z,13.68
2019-06-08T07:00:53.785Z,13.85
2019-06-08T07:03:23.868Z,16.52
2019-06-08T07:05:54.179Z,15.45
2019-06-08T07:08:24.270Z,13.22
2019-06-08T07:10:55.055Z,14.80
2019-06-08T07:13:25.057Z,13.75
2019-06-08T07:15:58.015Z,14.33
2019-06-08T07:18:26.216Z,13.70
2019-06-08T07:20:56.024Z,13.95
2019-06-08T07:23:25.772Z,14.58
2019-06-08T07:25:55.563Z,13.50
2019-06-08T07:28:25.350Z,19.60
2019-06-08T07:30:55.116Z,15.70
2019-06-08T07:33:24.818Z,14.85
2019-06-08T07:35:55.344Z,13.93
2019-06-08T07:38:25.255Z,14.25
2019-06-08T07:40:58.588Z,13.65
2019-06-08T07:43:26.356Z,13.13
2019-06-08T07:45:56.301Z,15.00
2019-06-08T07:48:26.112Z,15.55
2019-06-08T07:50:56.388Z,15.18
2019-06-08T07:53:26.650Z,14.53
2019-06-08T07:55:56.462Z,15.15
2019-06-08T07:58:26.235Z,14.73
2019-06-08T08:01:03.650Z,14.63
2019-06-08T08:03:27.401Z,14.33
2019-06-08T08:05:58.510Z,12.95
2019-06-08T08:08:28.402Z,12.80
2019-06-08T08:10:58.713Z,12.85
2019-06-08T08:13:29.484Z,12.80
2019-06-08T08:16:00.702Z,13.00
2019-06-08T08:18:30.620Z,12.28
2019-06-08T08:21:09.033Z,12.98
2019-06-08T08:23:31.786Z,11.73
2019-06-08T08:26:01.959Z,11.45
2019-06-08T08:28:31.786Z,11.33
2019-06-08T08:31:01.986Z,10.78
2019-06-08T08:33:31.923Z,11.83
2019-06-08T08:36:02.036Z,10.80
2019-06-08T08:38:31.900Z,11.75
2019-06-08T08:41:07.379Z,11.57
2019-06-08T08:43:32.981Z,12.00
2019-06-08T08:46:02.740Z,11.65
2019-06-08T08:48:32.616Z,12.37
2019-06-08T08:51:03.678Z,11.20
2019-06-08T08:53:33.744Z,10.82
2019-06-08T08:56:03.433Z,11.15
2019-06-08T08:58:33.190Z,11.28
2019-06-08T09:01:03.780Z,11.93
2019-06-08T09:03:33.985Z,10.88
2019-06-08T09:06:04.208Z,11.68
2019-06-08T09:08:34.580Z,9.70
2019-06-08T09:11:04.341Z,9.98
2019-06-08T09:13:34.094Z,10.25
2019-06-08T09:16:04.404Z,9.78
2019-06-08T09:18:34.643Z,11.08
2019-06-08T09:21:04.543Z,12.78
2019-06-08T09:23:34.356Z,12.23
2019-06-08T09:26:11.651Z,12.05
2019-06-08T09:28:35.560Z,12.58
2019-06-08T09:31:05.347Z,11.57
2019-06-08T09:33:35.098Z,12.40
2019-06-08T09:36:05.049Z,12.03
2019-06-08T09:38:35.678Z,12.13
2019-06-08T09:41:08.749Z,12.03
2019-06-08T09:43:38.798Z,10.93
2019-06-08T09:46:09.456Z,10.90
2019-06-08T09:48:40.576Z,12.23
2019-06-08T09:51:10.332Z,12.28
2019-06-08T09:53:41.588Z,10.70
2019-06-08T09:56:11.682Z,9.83
2019-06-08T09:58:41.412Z,10.43
2019-06-08T10:01:12.265Z,12.03
2019-06-08T10:03:42.254Z,10.82
2019-06-08T10:06:12.739Z,10.98
2019-06-08T10:08:42.961Z,10.80
2019-06-08T10:11:12.713Z,10.05
2019-06-08T10:13:43.495Z,10.18
2019-06-08T10:16:13.930Z,9.73
2019-06-08T10:18:43.788Z,10.00
2019-06-08T10:21:13.594Z,9.03
2019-06-08T10:23:43.645Z,9.08
2019-06-08T10:26:13.334Z,8.65
2019-06-08T10:28:43.199Z,10.00
2019-06-08T10:31:13.011Z,10.63
2019-06-08T10:33:42.817Z,11.05
2019-06-08T10:36:13.093Z,10.18
2019-06-08T10:38:43.258Z,11.38
2019-06-08T10:41:18.959Z,10.10
2019-06-08T10:43:44.773Z,10.95
2019-06-08T10:46:17.371Z,11.00
2019-06-08T10:48:48.451Z,11.35
2019-06-08T10:51:18.399Z,10.75
2019-06-08T10:53:52.670Z,11.45
2019-06-08T10:56:21.549Z,10.85
2019-06-08T10:58:51.419Z,11.78
2019-06-08T11:01:22.562Z,11.40
2019-06-08T11:03:52.361Z,10.82
2019-06-08T11:06:22.100Z,11.90
2019-06-08T11:08:51.815Z,10.60
2019-06-08T11:11:21.701Z,10.43
2019-06-08T11:13:51.397Z,10.40
2019-06-08T11:16:21.120Z,10.80
2019-06-08T11:18:51.162Z,11.38
2019-06-08T11:21:21.188Z,10.40
2019-06-08T11:24:06.114Z,23.15
2019-06-08T11:26:30.327Z,17.98
2019-06-08T11:29:01.558Z,13.38
2019-06-08T11:31:32.299Z,14.85
2019-06-08T11:34:12.739Z,10.78
2019-06-08T11:36:42.465Z,11.63
2019-06-08T11:39:12.833Z,11.95
2019-06-08T11:41:48.365Z,12.45
2019-06-08T11:44:18.164Z,14.18
2019-06-08T11:46:48.312Z,12.47
2019-06-08T11:49:18.696Z,14.87
2019-06-08T11:51:48.780Z,11.50
2019-06-08T11:54:34.492Z,13.25
2019-06-08T11:57:02.989Z,11.03
2019-06-08T11:59:43.394Z,13.62
2019-06-08T12:02:20.019Z,11.03
2019-06-08T12:04:57.285Z,9.88
2019-06-08T12:07:33.262Z,9.73
2019-06-08T12:10:12.508Z,10.48
2019-06-08T12:12:48.673Z,10.18
2019-06-08T12:15:24.544Z,10.35
2019-06-08T12:18:01.528Z,10.03
2019-06-08T12:20:37.672Z,11.68
2019-06-08T12:23:14.142Z,11.75
2019-06-08T12:25:43.958Z,10.10
2019-06-08T12:28:14.728Z,9.45
2019-06-08T12:30:44.452Z,9.58
2019-06-08T12:33:15.629Z,9.50
2019-06-08T12:35:47.599Z,10.88
2019-06-08T12:38:19.069Z,10.15
2019-06-08T12:40:54.944Z,21.62
2019-06-08T12:43:30.087Z,22.67
2019-06-08T12:46:08.245Z,12.58
2019-06-08T12:48:44.427Z,9.93
2019-06-08T12:51:21.325Z,8.85
2019-06-08T12:53:50.485Z,8.40
2019-06-08T12:56:23.945Z,8.10
2019-06-08T12:58:51.668Z,8.30
2019-06-08T13:01:23.264Z,7.90
2019-06-08T13:03:53.015Z,8.40
2019-06-08T13:06:28.345Z,8.75
2019-06-08T13:09:03.449Z,8.15
2019-06-08T13:11:39.878Z,7.40
2019-06-08T13:14:14.812Z,7.40
2019-06-08T13:16:53.047Z,7.20
2019-06-08T13:19:27.641Z,9.08
2019-06-08T13:21:58.278Z,7.75
2019-06-08T13:24:28.568Z,8.85
2019-06-08T13:26:58.319Z,7.78
2019-06-08T13:29:28.167Z,8.23
2019-06-08T13:31:58.674Z,8.85
2019-06-08T13:34:29.284Z,7.70
2019-06-08T13:36:59.016Z,7.35
2019-06-08T13:39:28.878Z,8.43
2019-06-08T13:41:58.602Z,8.10
2019-06-08T13:44:28.368Z,8.08
2019-06-08T13:46:58.047Z,7.22
2019-06-08T13:49:30.837Z,8.83
2019-06-08T13:51:59.716Z,8.20
2019-06-08T13:54:31.349Z,8.15
2019-06-08T13:57:00.905Z,9.00
2019-06-08T13:59:31.023Z,11.18
2019-06-08T14:02:01.579Z,9.08
2019-06-08T14:04:33.308Z,8.80
2019-06-08T14:07:03.086Z,8.45
2019-06-08T14:09:32.879Z,7.95
2019-06-08T14:12:02.650Z,8.33
2019-06-08T14:14:33.771Z,8.80
2019-06-08T14:17:03.713Z,9.38
2019-06-08T14:19:33.468Z,10.88
2019-06-08T14:22:03.208Z,10.80
2019-06-08T14:24:34.737Z,10.18
2019-06-08T14:27:09.905Z,12.05
2019-06-08T14:29:45.214Z,10.48
2019-06-08T14:32:22.360Z,10.85
2019-06-08T14:34:58.327Z,11.38
2019-06-08T14:37:38.085Z,11.65
2019-06-08T14:40:13.168Z,18.57
2019-06-08T14:42:48.543Z,14.45
2019-06-08T14:45:28.962Z,16.45
2019-06-08T14:48:03.425Z,15.88
2019-06-08T14:50:40.841Z,12.40
2019-06-08T14:53:19.730Z,16.60
2019-06-08T14:56:05.619Z,10.60
2019-06-08T14:58:35.189Z,10.38
2019-06-08T15:01:11.516Z,20.62
2019-06-08T15:03:48.216Z,10.40
2019-06-08T15:06:19.329Z,10.38
2019-06-08T15:08:50.378Z,11.63
2019-06-08T15:11:32.375Z,10.80
2019-06-08T15:14:04.431Z,11.50
2019-06-08T15:16:42.810Z,11.88
2019-06-08T15:19:18.406Z,11.33
2019-06-08T15:21:53.850Z,11.48
2019-06-08T15:24:31.332Z,12.55
2019-06-08T15:27:07.847Z,14.30
2019-06-08T15:29:43.402Z,11.68
2019-06-08T15:32:19.310Z,11.85
2019-06-08T15:34:52.037Z,13.30
2019-06-08T15:37:21.769Z,12.90
2019-06-08T15:39:52.745Z,12.45
2019-06-08T15:42:22.448Z,13.10
2019-06-08T15:44:52.303Z,13.93
2019-06-08T15:47:22.160Z,13.78
2019-06-08T15:49:59.821Z,13.48
2019-06-08T15:52:29.554Z,13.58
2019-06-08T15:55:01.357Z,13.08
2019-06-08T15:57:33.092Z,12.60
2019-06-08T16:00:01.362Z,16.25
2019-06-08T16:02:31.641Z,13.43
2019-06-08T16:05:01.745Z,12.18
2019-06-08T16:07:32.816Z,13.58
2019-06-08T16:10:02.933Z,12.95
2019-06-08T16:12:33.285Z,14.20
2019-06-08T16:15:03.552Z,14.18
2019-06-08T16:17:33.611Z,15.05
2019-06-08T16:20:03.475Z,15.83
2019-06-08T16:22:33.867Z,15.38
2019-06-08T16:25:04.136Z,15.48
2019-06-08T16:27:33.979Z,14.25
2019-06-08T16:30:09.094Z,16.60
2019-06-08T16:32:35.455Z,15.85
2019-06-08T16:35:06.063Z,16.32
2019-06-08T16:37:35.819Z,16.80
2019-06-08T16:40:05.787Z,16.50
2019-06-08T16:42:36.579Z,17.20
2019-06-08T16:45:07.701Z,17.17
2019-06-08T16:47:37.560Z,19.37
2019-06-08T16:50:07.372Z,17.25
2019-06-08T16:52:37.125Z,15.93
2019-06-08T16:55:07.111Z,18.87
2019-06-08T16:57:39.512Z,19.15
2019-06-08T17:02:41.368Z,19.02
2019-06-08T17:05:11.314Z,17.80
2019-06-08T17:07:41.028Z,18.85
2019-06-08T17:10:11.013Z,20.23
2019-06-08T17:12:43.117Z,20.97
2019-06-08T17:15:13.234Z,19.60
2019-06-08T17:17:45.200Z,17.73
2019-06-08T17:20:16.153Z,17.57
2019-06-08T17:22:49.262Z,17.15
2019-06-08T17:25:19.340Z,16.23
2019-06-08T17:27:49.101Z,17.32
2019-06-08T17:30:18.939Z,14.93
2019-06-08T17:32:48.708Z,13.95
2019-06-08T17:35:18.461Z,14.63
2019-06-08T17:37:49.223Z,15.75
2019-06-08T17:40:19.484Z,15.98
2019-06-08T17:42:49.660Z,16.50
2019-06-08T17:45:19.735Z,13.75
2019-06-08T17:47:49.520Z,15.20
2019-06-08T17:50:19.581Z,14.07
2019-06-08T17:52:49.295Z,13.18
2019-06-08T17:55:20.394Z,12.45
2019-06-08T17:57:53.514Z,13.00
2019-06-08T18:00:22.242Z,13.70
2019-06-08T18:02:51.996Z,12.80
2019-06-08T18:05:21.786Z,13.70
2019-06-08T18:07:51.552Z,15.13
2019-06-08T18:10:21.299Z,14.38
2019-06-08T18:12:51.053Z,12.98
2019-06-08T18:15:20.881Z,13.45
2019-06-08T18:17:50.632Z,13.03
2019-06-08T18:20:21.603Z,17.55
2019-06-08T18:22:51.527Z,16.75
2019-06-08T18:25:22.707Z,13.35
2019-06-08T18:28:06.485Z,13.08
2019-06-08T18:30:27.656Z,13.22
2019-06-08T18:32:58.045Z,12.90
2019-06-08T18:35:28.050Z,13.55
2019-06-08T18:37:57.974Z,13.85
2019-06-08T18:40:28.527Z,13.05
2019-06-08T18:42:59.010Z,13.60
2019-06-08T18:45:30.251Z,13.80
2019-06-08T18:48:00.104Z,12.75
2019-06-08T18:50:29.802Z,14.30
2019-06-08T18:52:59.494Z,13.35
2019-06-08T18:55:29.286Z,15.00
2019-06-08T18:57:59.036Z,12.78
2019-06-08T19:00:40.004Z,13.13
2019-06-08T19:03:09.580Z,12.70
2019-06-08T19:05:42.562Z,11.78
2019-06-08T19:08:12.530Z,12.40
2019-06-08T19:10:42.792Z,10.57
2019-06-08T19:13:13.681Z,10.03
2019-06-08T19:15:46.127Z,10.35
2019-06-08T19:18:14.831Z,15.00
2019-06-08T19:20:47.298Z,9.53
2019-06-08T19:23:20.693Z,9.87
2019-06-08T19:25:49.362Z,13.43
2019-06-08T19:28:34.885Z,13.60
2019-06-08T19:30:51.648Z,10.73
2019-06-08T19:33:21.967Z,9.17
2019-06-08T19:35:53.878Z,10.97
2019-06-08T19:38:23.148Z,11.70
2019-06-08T19:40:52.939Z,10.43
2019-06-08T19:43:22.793Z,9.67
2019-06-08T19:45:52.619Z,9.50
2019-06-08T19:48:22.367Z,17.60
2019-06-08T19:50:54.164Z,9.90
2019-06-08T19:53:23.671Z,9.13
2019-06-08T19:55:54.195Z,9.98
2019-06-08T19:58:24.311Z,10.08
2019-06-08T20:00:54.933Z,9.33
2019-06-08T20:03:27.377Z,9.30
2019-06-08T20:05:56.174Z,9.30
2019-06-08T20:08:28.333Z,9.50
2019-06-08T20:10:57.515Z,9.53
2019-06-08T20:13:27.690Z,12.45
2019-06-08T20:16:01.493Z,8.10
2019-06-08T20:18:28.782Z,7.43
2019-06-08T20:20:58.812Z,7.80
2019-06-08T20:23:28.960Z,7.20
2019-06-08T20:26:00.679Z,6.67
2019-06-08T20:28:30.711Z,6.73
2019-06-08T20:31:01.200Z,5.08
2019-06-08T20:33:31.128Z,7.80
2019-06-08T20:36:00.926Z,12.37
2019-06-08T20:38:37.266Z,5.03
2019-06-08T20:41:03.387Z,5.40
2019-06-08T20:43:33.272Z,6.97
2019-06-08T20:46:03.129Z,6.87
2019-06-08T20:48:32.931Z,3.60
2019-06-08T20:51:02.686Z,4.10
2019-06-08T20:53:32.408Z,3.13
2019-06-08T20:56:02.147Z,7.80
2019-06-08T20:58:31.938Z,4.63
2019-06-08T21:01:01.767Z,3.72
2019-06-08T21:03:32.730Z,6.37
2019-06-08T21:06:02.552Z,4.30
2019-06-08T21:08:32.347Z,5.37
2019-06-08T21:11:02.216Z,4.37
2019-06-08T21:13:31.956Z,3.87
2019-06-08T21:16:01.695Z,5.57
2019-06-08T21:18:31.448Z,4.20
2019-06-08T21:21:01.291Z,7.07
2019-06-08T21:23:32.099Z,3.53
2019-06-08T21:26:02.305Z,4.07
2019-06-08T21:28:32.197Z,4.53
2019-06-08T21:31:08.347Z,5.57
2019-06-08T21:33:37.954Z,4.43
2019-06-08T21:36:09.300Z,6.83
2019-06-08T21:38:41.056Z,6.13
2019-06-08T21:41:11.354Z,8.03
2019-06-08T21:43:41.409Z,6.80
2019-06-08T21:46:11.099Z,5.17
2019-06-08T21:48:41.035Z,4.23
2019-06-08T21:51:10.966Z,5.77
2019-06-08T21:53:40.721Z,5.73
2019-06-08T21:56:10.370Z,4.47
2019-06-08T21:58:40.131Z,5.17
2019-06-08T22:01:10.551Z,5.53
2019-06-08T22:03:40.309Z,6.57
2019-06-08T22:06:10.054Z,3.17
2019-06-08T22:08:39.742Z,4.93
2019-06-08T22:11:09.506Z,6.93
2019-06-08T22:13:39.260Z,5.70
2019-06-08T22:16:11.494Z,5.17
2019-06-08T22:18:41.543Z,7.37
2019-06-08T22:21:11.277Z,3.40
2019-06-08T22:23:40.972Z,5.83
2019-06-08T22:26:10.779Z,4.77
2019-06-08T22:28:40.568Z,3.27
2019-06-08T22:31:10.348Z,4.30
2019-06-08T22:33:40.022Z,3.83
2019-06-08T22:36:09.744Z,4.80
2019-06-08T22:38:39.531Z,3.70
2019-06-08T22:41:09.416Z,3.63
2019-06-08T22:43:39.219Z,5.30
2019-06-08T22:46:09.560Z,4.40
2019-06-08T22:48:39.247Z,5.23
2019-06-08T22:51:09.016Z,9.47
2019-06-08T22:53:38.788Z,3.93
2019-06-08T22:56:08.556Z,5.00
2019-06-08T22:58:38.536Z,2.63
2019-06-08T23:01:11.410Z,6.93
2019-06-08T23:03:39.658Z,4.60
2019-06-08T23:06:09.413Z,5.23
2019-06-08T23:08:39.145Z,5.83
2019-06-08T23:11:08.883Z,5.37
2019-06-08T23:13:38.593Z,3.77
2019-06-08T23:16:09.000Z,4.70
2019-06-08T23:18:38.878Z,6.93
2019-06-08T23:21:09.413Z,3.20
2019-06-08T23:23:39.107Z,4.63
2019-06-08T23:26:10.391Z,2.63
2019-06-08T23:28:40.199Z,5.00
2019-06-08T23:31:21.370Z,12.57
2019-06-08T23:33:41.187Z,8.37
2019-06-08T23:38:42.216Z,6.00
2019-06-08T23:41:11.935Z,4.53
2019-06-08T23:43:41.599Z,3.90
2019-06-08T23:46:11.310Z,10.43
2019-06-08T23:48:41.040Z,4.87
2019-06-08T23:51:11.049Z,10.13
2019-06-08T23:53:41.033Z,3.63
2019-06-08T23:56:11.863Z,5.03
2019-06-08T23:58:41.910Z,8.07
